Time;durP1;ratioP1;P1;durP2;ratioP2;P2;SDS_P1;SDS_P2;PMS_P1;PMS_P2;Temp;Humidity;BMP_temperature;BMP_pressure;BME280_temperature;BME280_humidity;BME280_pressure;Samples;Min_cycle;Max_cycle;Signal;HPM_P1;HPM_P2
2022/04/27 00:01:10;;;;;;;;;;;;;;;;;;5011775;28;20117;-77
2022/04/27 00:03:37;;;;;;;4.93;3.03;;;;;;;;;;5010428;28;20007;-78
2022/04/27 00:06:05;;;;;;;3.35;3.10;;;;;;;;;;4993424;28;20418;-76
2022/04/27 00:08:33;;;;;;;3.97;3.35;;;;;;;;;;4976963;28;20052;-75
2022/04/27 00:11:00;;;;;;;6.00;3.10;;;;;;;;;;5010161;28;20180;-77
2022/04/27 00:13:28;;;;;;;5.72;2.80;;;;;;;;;;4994314;28;20573;-76
2022/04/27 00:15:57;;;;;;;3.58;3.28;;;;;;;;;;5009108;28;20034;-76
2022/04/27 00:18:23;;;;;;;3.30;2.95;;;;;;;;;;5010250;28;20112;-76
2022/04/27 00:20:57;;;;;;;4.38;3.20;;;;;;;;;;5010531;28;20026;-76
2022/04/27 00:23:26;;;;;;;7.15;3.33;;;;;;;;;;5011400;28;20069;-78
2022/04/27 00:25:54;;;;;;;4.95;3.58;;;;;;;;;;4993513;28;20053;-76
2022/04/27 00:28:21;;;;;;;4.13;3.10;;;;;;;;;;5011327;28;20054;-77
2022/04/27 00:30:49;;;;;;;2.75;2.55;;;;;;;;;;4977340;28;20046;-78
2022/04/27 00:33:17;;;;;;;3.40;3.10;;;;;;;;;;5011249;28;20485;-79
2022/04/27 00:35:45;;;;;;;3.40;3.10;;;;;;;;;;4993276;28;20053;-78
2022/04/27 00:38:15;;;;;;;3.05;2.67;;;;;;;;;;5011123;28;20058;-78
2022/04/27 00:40:41;;;;;;;4.20;2.72;;;;;;;;;;4993338;28;20130;-77
2022/04/27 00:43:10;;;;;;;3.05;2.75;;;;;;;;;;4993259;28;20037;-75
2022/04/27 00:45:37;;;;;;;2.63;2.42;;;;;;;;;;5010699;28;20040;-76
2022/04/27 00:48:04;;;;;;;5.47;2.58;;;;;;;;;;4993034;28;20072;-76
2022/04/27 00:50:31;;;;;;;2.70;2.50;;;;;;;;;;4992986;28;20462;-76
2022/04/27 00:52:59;;;;;;;2.50;2.35;;;;;;;;;;4992908;28;20049;-77
2022/04/27 00:55:30;;;;;;;2.78;2.60;;;;;;;;;;5010806;28;20037;-76
2022/04/27 00:57:56;;;;;;;4.70;2.45;;;;;;;;;;5009026;28;20046;-77
2022/04/27 01:00:23;;;;;;;4.97;3.22;;;;;;;;;;5010777;28;20577;-77
2022/04/27 01:02:52;;;;;;;4.78;2.22;;;;;;;;;;4992986;28;20427;-76
2022/04/27 01:05:24;;;;;;;3.13;2.22;;;;;;;;;;4992733;28;20132;-77
2022/04/27 01:07:50;;;;;;;2.55;2.35;;;;;;;;;;4992633;28;20128;-78
2022/04/27 01:10:16;;;;;;;3.20;2.30;;;;;;;;;;5009363;28;20046;-77
2022/04/27 01:12:44;;;;;;;3.35;2.83;;;;;;;;;;4992578;28;20076;-79
2022/04/27 01:15:31;;;;;;;4.15;2.55;;;;;;;;;;4993216;28;20112;-76
2022/04/27 01:17:59;;;;;;;2.53;2.30;;;;;;;;;;4992649;28;20053;-77
2022/04/27 01:20:47;;;;;;;3.53;2.30;;;;;;;;;;4993118;28;20050;-76
2022/04/27 01:23:18;;;;;;;2.60;2.40;;;;;;;;;;4993805;28;20073;-76
2022/04/27 01:25:46;;;;;;;2.55;2.30;;;;;;;;;;5011966;28;20127;-76
2022/04/27 01:28:18;;;;;;;4.13;2.95;;;;;;;;;;5021030;28;20046;-76
2022/04/27 01:30:45;;;;;;;2.63;2.03;;;;;;;;;;4986226;28;20045;-76
2022/04/27 01:33:12;;;;;;;3.33;2.13;;;;;;;;;;5009664;28;20132;-77
2022/04/27 01:35:40;;;;;;;3.28;2.10;;;;;;;;;;5010408;28;20140;-76
2022/04/27 01:38:08;;;;;;;2.50;2.25;;;;;;;;;;5010564;28;20078;-76
2022/04/27 01:40:36;;;;;;;3.17;2.00;;;;;;;;;;4992445;28;20041;-76
2022/04/27 01:43:02;;;;;;;5.95;2.08;;;;;;;;;;5009711;28;20046;-75
2022/04/27 01:45:29;;;;;;;5.70;3.00;;;;;;;;;;4992532;28;20128;-75
2022/04/27 01:47:57;;;;;;;3.25;2.78;;;;;;;;;;5003638;28;20050;-77
2022/04/27 01:50:23;;;;;;;2.92;2.58;;;;;;;;;;5010216;28;20068;-79
2022/04/27 01:55:36;;;;;;;3.35;2.40;;;;;;;;;;5009349;28;20480;-80
2022/04/27 01:58:03;;;;;;;2.38;2.17;;;;;;;;;;4991654;28;20054;-79
2022/04/27 02:00:30;;;;;;;4.55;2.15;;;;;;;;;;5009686;28;20048;-79
2022/04/27 02:02:59;;;;;;;4.53;2.30;;;;;;;;;;4992377;28;20045;-79
2022/04/27 02:05:26;;;;;;;4.32;2.10;;;;;;;;;;4992537;28;20042;-80
2022/04/27 02:07:53;;;;;;;2.25;2.15;;;;;;;;;;4991953;28;20048;-78
2022/04/27 02:10:20;;;;;;;4.00;1.92;;;;;;;;;;4992144;28;20422;-77
2022/04/27 02:12:46;;;;;;;2.03;1.92;;;;;;;;;;4991941;28;20137;-77
2022/04/27 02:15:23;;;;;;;2.55;1.88;;;;;;;;;;5008685;28;20092;-78
2022/04/27 02:18:01;;;;;;;1.90;1.80;;;;;;;;;;4991576;28;20058;-79
2022/04/27 02:20:27;;;;;;;2.00;1.90;;;;;;;;;;4991215;28;20417;-79
2022/04/27 02:22:54;;;;;;;2.25;2.10;;;;;;;;;;4975401;28;20053;-79
2022/04/27 02:25:20;;;;;;;2.13;1.98;;;;;;;;;;4992193;28;20034;-78
2022/04/27 02:27:48;;;;;;;2.63;1.67;;;;;;;;;;4991940;28;20084;-79
2022/04/27 02:30:15;;;;;;;2.00;1.80;;;;;;;;;;4993079;28;20061;-79
2022/04/27 02:32:41;;;;;;;2.22;2.10;;;;;;;;;;4995871;28;20053;-79
2022/04/27 02:35:08;;;;;;;2.20;2.00;;;;;;;;;;4995973;28;20438;-78
2022/04/27 02:37:34;;;;;;;2.22;1.52;;;;;;;;;;4995608;28;20049;-77
2022/04/27 02:40:00;;;;;;;3.08;1.95;;;;;;;;;;4995652;28;20041;-79
2022/04/27 02:42:29;;;;;;;2.00;1.90;;;;;;;;;;5013161;28;20041;-79
2022/04/27 02:44:56;;;;;;;2.25;1.83;;;;;;;;;;4995553;28;20065;-78
2022/04/27 02:47:23;;;;;;;2.22;2.03;;;;;;;;;;4995311;28;20558;-80
2022/04/27 02:52:48;;;;;;;2.45;1.98;;;;;;;;;;5011806;28;20045;-78
2022/04/27 02:55:34;;;;;;;2.10;2.00;;;;;;;;;;5012524;28;20100;-79
2022/04/27 02:58:02;;;;;;;2.00;1.90;;;;;;;;;;5011446;28;20073;-79
2022/04/27 03:00:30;;;;;;;1.98;1.80;;;;;;;;;;4995833;28;20041;-80
2022/04/27 03:02:58;;;;;;;2.10;2.00;;;;;;;;;;5003114;28;20050;-79
2022/04/27 03:05:24;;;;;;;2.28;2.08;;;;;;;;;;4995389;28;20510;-78
2022/04/27 03:07:50;;;;;;;2.50;2.30;;;;;;;;;;4994949;28;20046;-80
2022/04/27 03:10:18;;;;;;;2.35;2.10;;;;;;;;;;5011760;28;20112;-80
2022/04/27 03:12:43;;;;;;;2.78;2.20;;;;;;;;;;5012458;28;20042;-80
2022/04/27 03:15:09;;;;;;;1.98;1.88;;;;;;;;;;5003396;28;20496;-79
2022/04/27 03:17:36;;;;;;;2.17;2.08;;;;;;;;;;4995012;28;20050;-79
2022/04/27 03:20:04;;;;;;;2.33;2.15;;;;;;;;;;4978570;28;20029;-79
2022/04/27 03:22:30;;;;;;;2.60;2.40;;;;;;;;;;5001138;28;20053;-77
2022/04/27 03:24:57;;;;;;;2.50;2.30;;;;;;;;;;5011563;28;20046;-79
2022/04/27 03:27:29;;;;;;;2.33;2.22;;;;;;;;;;4995222;28;20080;-77
2022/04/27 03:29:55;;;;;;;2.63;2.53;;;;;;;;;;5012091;28;20420;-78
2022/04/27 03:32:22;;;;;;;1.67;1.58;;;;;;;;;;5018321;28;20049;-80
2022/04/27 03:34:53;;;;;;;2.60;2.42;;;;;;;;;;5014673;28;20042;-78
2022/04/27 03:37:22;;;;;;;2.72;2.50;;;;;;;;;;4994539;28;20058;-80
2022/04/27 03:39:50;;;;;;;2.60;2.50;;;;;;;;;;4994264;28;20542;-79
2022/04/27 03:42:19;;;;;;;2.65;2.45;;;;;;;;;;4996270;28;20054;-81
2022/04/27 03:44:49;;;;;;;8.20;2.60;;;;;;;;;;4995996;28;20044;-80
2022/04/27 03:47:16;;;;;;;3.03;2.83;;;;;;;;;;4995049;28;20061;-81
2022/04/27 03:49:42;;;;;;;4.97;2.65;;;;;;;;;;5011087;28;20046;-79
2022/04/27 03:52:08;;;;;;;13.57;3.10;;;;;;;;;;4994858;28;20050;-80
2022/04/27 03:54:34;;;;;;;6.47;2.95;;;;;;;;;;5012687;28;20042;-80
2022/04/27 03:57:01;;;;;;;9.30;3.97;;;;;;;;;;5015911;28;20430;-79
2022/04/27 03:59:28;;;;;;;5.38;3.45;;;;;;;;;;5008359;28;20038;-80
2022/04/27 04:01:54;;;;;;;9.05;4.53;;;;;;;;;;4993188;28;20046;-79
2022/04/27 04:04:20;;;;;;;4.28;3.55;;;;;;;;;;4978030;28;20057;-80
2022/04/27 04:06:46;;;;;;;7.40;4.40;;;;;;;;;;4992504;28;20554;-79
2022/04/27 04:09:12;;;;;;;6.68;3.90;;;;;;;;;;5006777;28;20617;-79
2022/04/27 04:11:39;;;;;;;6.95;3.95;;;;;;;;;;5008771;28;20063;-79
2022/04/27 04:14:10;;;;;;;2.88;2.67;;;;;;;;;;5012078;28;20444;-81
2022/04/27 04:16:42;;;;;;;3.00;2.80;;;;;;;;;;4994123;28;20137;-80
2022/04/27 04:19:34;;;;;;;3.45;2.83;;;;;;;;;;5011129;28;20514;-80
2022/04/27 04:22:35;;;;;;;8.23;3.88;;;;;;;;;;5004424;28;20077;-80
2022/04/27 04:30:49;;;;;;;7.03;4.18;;;;;;;;;;5011081;28;20049;-79
2022/04/27 04:33:38;;;;;;;6.50;3.60;;;;;;;;;;4979435;28;20045;-78
2022/04/27 04:36:08;;;;;;;3.55;3.25;;;;;;;;;;4991078;28;20509;-79
2022/04/27 04:38:36;;;;;;;3.10;2.90;;;;;;;;;;5007815;28;20080;-78
2022/04/27 04:41:04;;;;;;;4.70;3.35;;;;;;;;;;5008990;28;20052;-80
2022/04/27 04:43:46;;;;;;;5.63;3.15;;;;;;;;;;4977336;28;20080;-79
2022/04/27 04:46:12;;;;;;;4.15;3.80;;;;;;;;;;4993162;28;20038;-79
2022/04/27 04:48:57;;;;;;;8.73;3.20;;;;;;;;;;5010462;28;20061;-80
2022/04/27 04:51:29;;;;;;;5.00;3.50;;;;;;;;;;5013052;28;20414;-81
2022/04/27 04:54:15;;;;;;;6.15;3.58;;;;;;;;;;4994781;28;20053;-82
2022/04/27 04:56:54;;;;;;;7.25;4.03;;;;;;;;;;4993211;28;20056;-79
2022/04/27 04:59:34;;;;;;;7.68;3.42;;;;;;;;;;5008734;28;20050;-80
2022/04/27 05:02:08;;;;;;;3.83;3.42;;;;;;;;;;5008655;28;20085;-80
2022/04/27 05:04:53;;;;;;;8.35;3.47;;;;;;;;;;5009839;28;20042;-77
2022/04/27 05:07:37;;;;;;;6.45;3.20;;;;;;;;;;5009566;28;20050;-81
2022/04/27 05:10:10;;;;;;;4.28;3.55;;;;;;;;;;4993128;28;20591;-81
2022/04/27 05:12:58;;;;;;;3.17;2.88;;;;;;;;;;4999870;28;20129;-80
2022/04/27 05:15:43;;;;;;;3.53;3.20;;;;;;;;;;5009518;28;20497;-79
2022/04/27 05:18:27;;;;;;;3.25;3.05;;;;;;;;;;4990436;28;20061;-80
2022/04/27 05:21:13;;;;;;;4.88;2.88;;;;;;;;;;5008218;28;20107;-80
2022/04/27 05:23:53;;;;;;;5.97;3.30;;;;;;;;;;4987338;28;20050;-79
2022/04/27 05:26:40;;;;;;;3.47;3.22;;;;;;;;;;4994479;28;20413;-80
2022/04/27 05:32:14;;;;;;;4.25;2.80;;;;;;;;;;5013401;28;20045;-75
2022/04/27 05:34:45;;;;;;;;;;;;;;;;;;4985294;28;20052;-74
2022/04/27 05:37:24;;;;;;;3.67;2.58;;;;;;;;;;5000868;28;19928;-75
2022/04/27 05:40:09;;;;;;;2.28;2.10;;;;;;;;;;5010771;28;20132;-75
2022/04/27 05:42:54;;;;;;;2.60;2.40;;;;;;;;;;5004825;28;20041;-74
2022/04/27 05:45:28;;;;;;;2.28;2.17;;;;;;;;;;4977536;28;20042;-74
2022/04/27 05:48:23;;;;;;;6.20;2.70;;;;;;;;;;4920197;28;20056;-75
2022/04/27 05:51:18;;;;;;;3.92;2.30;;;;;;;;;;4982637;28;20038;-74
2022/04/27 05:54:03;;;;;;;2.35;2.20;;;;;;;;;;4992027;28;20145;-75
2022/04/27 05:56:58;;;;;;;3.78;2.35;;;;;;;;;;4963691;28;20031;-75
2022/04/27 05:59:43;;;;;;;5.88;2.47;;;;;;;;;;4982719;28;20434;-75
2022/04/27 06:02:30;;;;;;;2.80;2.60;;;;;;;;;;4969099;28;20049;-75
2022/04/27 06:04:55;;;;;;;3.42;3.10;;;;;;;;;;4989092;28;20038;-74
2022/04/27 06:07:21;;;;;;;4.00;2.80;;;;;;;;;;4980344;28;20045;-74
2022/04/27 06:09:47;;;;;;;4.88;2.97;;;;;;;;;;4975941;28;20038;-75
2022/04/27 06:12:34;;;;;;;2.92;2.80;;;;;;;;;;4991463;28;20108;-75
2022/04/27 06:15:18;;;;;;;5.03;3.28;;;;;;;;;;4997282;28;20038;-75
2022/04/27 06:17:44;;;;;;;4.05;2.90;;;;;;;;;;5007378;28;20430;-76
2022/04/27 06:20:12;;;;;;;8.00;3.15;;;;;;;;;;5007544;28;20096;-79
2022/04/27 06:22:39;;;;;;;6.20;2.97;;;;;;;;;;5007435;28;20128;-77
2022/04/27 06:25:05;;;;;;;4.93;3.00;;;;;;;;;;4974985;28;20136;-76
2022/04/27 06:27:54;;;;;;;5.57;2.60;;;;;;;;;;5007712;28;20076;-77
2022/04/27 06:30:20;;;;;;;4.25;2.85;;;;;;;;;;5008756;28;20507;-75
2022/04/27 06:32:48;;;;;;;2.95;2.63;;;;;;;;;;4990596;28;20049;-73
2022/04/27 06:35:14;;;;;;;7.25;2.75;;;;;;;;;;4991067;28;20227;-76
2022/04/27 06:37:41;;;;;;;4.30;2.92;;;;;;;;;;5006809;28;20061;-77
2022/04/27 06:40:08;;;;;;;3.33;2.90;;;;;;;;;;5028261;28;20124;-78
2022/04/27 06:42:35;;;;;;;3.13;2.92;;;;;;;;;;5027177;28;20057;-76
2022/04/27 06:45:20;;;;;;;3.10;2.53;;;;;;;;;;5025850;28;20045;-76
2022/04/27 06:48:05;;;;;;;3.60;2.95;;;;;;;;;;5007210;28;20053;-78
2022/04/27 06:50:49;;;;;;;5.10;3.45;;;;;;;;;;4993914;28;20061;-77
2022/04/27 06:53:33;;;;;;;3.13;2.72;;;;;;;;;;4974641;28;20109;-78
2022/04/27 06:56:22;;;;;;;3.05;2.53;;;;;;;;;;4961238;28;20045;-77
2022/04/27 06:59:17;;;;;;;2.72;2.53;;;;;;;;;;4981398;28;20620;-77
2022/04/27 07:01:44;;;;;;;4.20;2.58;;;;;;;;;;4992695;28;20049;-77
2022/04/27 07:04:11;;;;;;;4.57;2.53;;;;;;;;;;4990754;28;20418;-76
2022/04/27 07:06:40;;;;;;;2.08;1.98;;;;;;;;;;4990311;28;20073;-76
2022/04/27 07:09:11;;;;;;;2.13;2.03;;;;;;;;;;5004820;28;20517;-76
2022/04/27 07:11:37;;;;;;;3.50;2.30;;;;;;;;;;4985243;28;20042;-77
2022/04/27 07:14:03;;;;;;;4.82;2.40;;;;;;;;;;5002388;28;20045;-79
2022/04/27 07:16:29;;;;;;;5.95;2.10;;;;;;;;;;5013418;28;20040;-77
2022/04/27 07:18:55;;;;;;;2.78;2.20;;;;;;;;;;5012708;28;20058;-76
2022/04/27 07:21:21;;;;;;;2.42;2.28;;;;;;;;;;5011625;28;20037;-75
2022/04/27 07:23:47;;;;;;;6.07;2.60;;;;;;;;;;4991247;28;20046;-76
2022/04/27 07:26:13;;;;;;;5.90;2.15;;;;;;;;;;5000674;28;20525;-73
2022/04/27 07:28:41;;;;;;;5.28;2.42;;;;;;;;;;5002548;28;20046;-75
2022/04/27 07:31:07;;;;;;;2.60;2.40;;;;;;;;;;5001074;28;20105;-74
2022/04/27 07:33:34;;;;;;;2.20;2.00;;;;;;;;;;4989597;28;20041;-75
2022/04/27 07:36:00;;;;;;;2.50;2.20;;;;;;;;;;5012854;28;20041;-76
2022/04/27 07:38:27;;;;;;;2.38;2.20;;;;;;;;;;4993326;28;20526;-74
2022/04/27 07:40:53;;;;;;;2.72;2.30;;;;;;;;;;5012746;28;20502;-74
2022/04/27 07:43:19;;;;;;;2.00;1.90;;;;;;;;;;5011569;28;20053;-77
2022/04/27 07:45:45;;;;;;;2.33;2.22;;;;;;;;;;5006233;28;20041;-73
2022/04/27 07:48:11;;;;;;;3.00;2.50;;;;;;;;;;5011410;28;20099;-74
2022/04/27 07:50:37;;;;;;;7.57;2.50;;;;;;;;;;5010852;28;20046;-74
2022/04/27 07:53:02;;;;;;;3.33;2.45;;;;;;;;;;4992300;28;20060;-76
2022/04/27 07:55:29;;;;;;;4.93;2.42;;;;;;;;;;5004398;28;20038;-75
2022/04/27 07:57:55;;;;;;;4.53;2.90;;;;;;;;;;4999915;28;20058;-76
2022/04/27 08:00:22;;;;;;;4.07;2.47;;;;;;;;;;4991778;28;20047;-78
2022/04/27 08:02:47;;;;;;;4.25;2.97;;;;;;;;;;4995872;28;20053;-75
2022/04/27 08:05:16;;;;;;;2.55;2.45;;;;;;;;;;4996941;28;20408;-74
2022/04/27 08:07:44;;;;;;;4.00;2.45;;;;;;;;;;5007151;28;20076;-72
2022/04/27 08:10:10;;;;;;;4.30;2.33;;;;;;;;;;4977593;28;20060;-79
2022/04/27 08:12:37;;;;;;;2.13;2.03;;;;;;;;;;4993337;28;20042;-80
2022/04/27 08:15:03;;;;;;;3.33;2.90;;;;;;;;;;5011019;28;20096;-80
2022/04/27 08:17:29;;;;;;;3.47;2.42;;;;;;;;;;4976844;28;20446;-83
2022/04/27 08:21:13;;;;;;;5.47;2.40;;;;;;;;;;5008868;28;20033;-78
2022/04/27 08:22:41;;;;;;;10.60;2.85;;;;;;;;;;5009090;28;20042;-78
2022/04/27 08:25:07;;;;;;;2.55;2.40;;;;;;;;;;4993968;28;20130;-79
2022/04/27 08:27:33;;;;;;;5.80;2.80;;;;;;;;;;5009237;28;20583;-80
2022/04/27 08:29:59;;;;;;;5.45;2.60;;;;;;;;;;5008366;28;20140;-81
2022/04/27 08:32:25;;;;;;;4.18;2.28;;;;;;;;;;4991381;28;20061;-82
2022/04/27 08:34:51;;;;;;;7.05;2.50;;;;;;;;;;5010247;28;20096;-78
2022/04/27 08:37:17;;;;;;;3.65;2.40;;;;;;;;;;5009003;28;20038;-77
2022/04/27 08:39:43;;;;;;;4.28;2.60;;;;;;;;;;4990011;28;20127;-79
2022/04/27 08:42:09;;;;;;;7.22;2.47;;;;;;;;;;4994385;28;20038;-83
2022/04/27 08:44:35;;;;;;;7.00;3.17;;;;;;;;;;5019549;28;20045;-82
2022/04/27 08:47:02;;;;;;;2.20;2.08;;;;;;;;;;5009473;28;20041;-76
2022/04/27 08:49:32;;;;;;;3.47;2.50;;;;;;;;;;4991202;28;20038;-77
2022/04/27 08:52:00;;;;;;;10.02;2.55;;;;;;;;;;4957626;28;20049;-77
2022/04/27 08:54:26;;;;;;;6.28;2.72;;;;;;;;;;4988569;28;20065;-76
2022/04/27 08:56:53;;;;;;;3.03;2.45;;;;;;;;;;4970568;28;20046;-78
2022/04/27 08:59:19;;;;;;;2.67;2.47;;;;;;;;;;5006916;28;20061;-77
2022/04/27 09:01:44;;;;;;;2.42;2.33;;;;;;;;;;5009047;28;20046;-76
2022/04/27 09:04:12;;;;;;;2.95;2.67;;;;;;;;;;5008425;28;20046;-76
2022/04/27 09:06:41;;;;;;;2.53;2.33;;;;;;;;;;5009423;28;20563;-77
2022/04/27 09:09:13;;;;;;;11.35;2.95;;;;;;;;;;5009874;28;20042;-77
2022/04/27 09:11:39;;;;;;;2.63;2.20;;;;;;;;;;5011032;28;20073;-77
2022/04/27 09:14:07;;;;;;;3.70;2.30;;;;;;;;;;5013421;28;20046;-76
2022/04/27 09:22:10;;;;;;;2.45;2.13;;;;;;;;;;5011409;28;20026;-76
2022/04/27 09:24:50;;;;;;;2.78;2.40;;;;;;;;;;5010201;28;20199;-76
2022/04/27 09:27:18;;;;;;;5.32;2.70;;;;;;;;;;5009806;28;20057;-76
2022/04/27 09:29:54;;;;;;;9.15;2.60;;;;;;;;;;5008369;28;20069;-76
2022/04/27 09:32:20;;;;;;;2.33;2.13;;;;;;;;;;5010098;28;20119;-77
2022/04/27 09:34:46;;;;;;;4.63;3.38;;;;;;;;;;5009747;28;20046;-74
2022/04/27 09:37:13;;;;;;;14.18;4.22;;;;;;;;;;5009795;28;20088;-76
2022/04/27 09:39:39;;;;;;;7.63;2.70;;;;;;;;;;4991704;28;20128;-77
2022/04/27 09:42:06;;;;;;;8.25;3.10;;;;;;;;;;4991937;28;20172;-76
2022/04/27 09:44:33;;;;;;;4.88;2.88;;;;;;;;;;5009696;28;20042;-76
2022/04/27 09:46:59;;;;;;;3.00;2.70;;;;;;;;;;5012559;28;20053;-82
2022/04/27 09:49:25;;;;;;;6.25;3.30;;;;;;;;;;4974123;28;20054;-73
2022/04/27 09:51:52;;;;;;;4.15;2.83;;;;;;;;;;4995878;28;20040;-74
2022/04/27 09:54:28;;;;;;;7.35;2.45;;;;;;;;;;4990045;28;20077;-74
2022/04/27 09:56:55;;;;;;;9.45;3.10;;;;;;;;;;4998526;28;20045;-73
2022/04/27 09:59:21;;;;;;;4.32;2.20;;;;;;;;;;4972140;28;20057;-73
2022/04/27 10:01:47;;;;;;;4.38;3.15;;;;;;;;;;4997102;28;20093;-73
2022/04/27 10:04:13;;;;;;;4.97;2.58;;;;;;;;;;4998062;28;20038;-73
2022/04/27 10:06:39;;;;;;;6.35;3.08;;;;;;;;;;4990034;28;20048;-73
2022/04/27 10:09:05;;;;;;;3.55;2.72;;;;;;;;;;5003554;28;20129;-73
2022/04/27 10:11:32;;;;;;;3.22;2.50;;;;;;;;;;5010749;28;20092;-73
2022/04/27 10:13:58;;;;;;;3.50;2.70;;;;;;;;;;5014423;28;20038;-73
2022/04/27 10:16:24;;;;;;;2.50;2.40;;;;;;;;;;5012175;28;20494;-73
2022/04/27 10:18:53;;;;;;;6.30;2.70;;;;;;;;;;5009179;28;20085;-72
2022/04/27 10:21:39;;;;;;;6.05;2.83;;;;;;;;;;4991687;28;20038;-73
2022/04/27 10:24:06;;;;;;;2.63;2.45;;;;;;;;;;5008765;28;20546;-73
2022/04/27 10:26:31;;;;;;;3.65;2.28;;;;;;;;;;5009305;28;20151;-73
2022/04/27 10:29:00;;;;;;;2.30;2.20;;;;;;;;;;5007958;28;20045;-73
2022/04/27 10:31:46;;;;;;;2.40;2.20;;;;;;;;;;5009005;28;20066;-73
2022/04/27 10:34:22;;;;;;;2.83;2.60;;;;;;;;;;5009060;28;20045;-73
2022/04/27 10:36:48;;;;;;;2.95;2.30;;;;;;;;;;4991689;28;20114;-73
2022/04/27 10:39:15;;;;;;;3.35;2.35;;;;;;;;;;5007266;28;20434;-73
2022/04/27 10:41:42;;;;;;;4.22;1.92;;;;;;;;;;5009360;28;20470;-73
2022/04/27 10:44:08;;;;;;;3.47;2.03;;;;;;;;;;5005965;28;20117;-72
2022/04/27 10:46:46;;;;;;;2.70;2.13;;;;;;;;;;4983820;28;20144;-73
2022/04/27 10:49:22;;;;;;;3.90;2.20;;;;;;;;;;4991207;28;20522;-74
2022/04/27 10:52:01;;;;;;;4.80;2.10;;;;;;;;;;4993265;28;20046;-74
2022/04/27 10:54:28;;;;;;;3.67;2.25;;;;;;;;;;5010541;28;20543;-74
2022/04/27 10:56:55;;;;;;;2.78;2.05;;;;;;;;;;4995421;28;20041;-74
2022/04/27 10:59:40;;;;;;;4.38;2.63;;;;;;;;;;4994970;28;20083;-74
2022/04/27 11:02:06;;;;;;;2.90;2.70;;;;;;;;;;5012991;28;20461;-76
2022/04/27 11:04:33;;;;;;;3.40;3.08;;;;;;;;;;4978768;28;20034;-75
2022/04/27 11:07:02;;;;;;;11.60;3.60;;;;;;;;;;4995172;28;20046;-75
2022/04/27 11:09:34;;;;;;;4.45;2.70;;;;;;;;;;4978177;28;20158;-76
2022/04/27 11:12:00;;;;;;;10.07;3.28;;;;;;;;;;4979106;28;20041;-77
2022/04/27 11:14:31;;;;;;;7.93;3.17;;;;;;;;;;4994581;28;20339;-77
2022/04/27 11:16:57;;;;;;;5.13;2.78;;;;;;;;;;5012745;28;20045;-77
2022/04/27 11:19:33;;;;;;;3.88;2.22;;;;;;;;;;5011888;28;20069;-78
2022/04/27 11:22:09;;;;;;;8.63;3.13;;;;;;;;;;5011646;28;20077;-77
2022/04/27 11:24:35;;;;;;;4.53;3.50;;;;;;;;;;5012117;28;20064;-76
2022/04/27 11:27:00;;;;;;;4.63;3.03;;;;;;;;;;5011280;28;20580;-77
2022/04/27 11:29:26;;;;;;;3.20;2.80;;;;;;;;;;5011764;28;20070;-75
2022/04/27 11:31:52;;;;;;;6.35;3.75;;;;;;;;;;4994751;28;20046;-74
2022/04/27 11:34:28;;;;;;;2.40;2.30;;;;;;;;;;5010372;28;20064;-74
2022/04/27 11:36:54;;;;;;;3.58;3.28;;;;;;;;;;5012178;28;20082;-79
2022/04/27 11:39:24;;;;;;;3.03;2.70;;;;;;;;;;5011094;28;20054;-75
2022/04/27 11:41:58;;;;;;;3.42;3.22;;;;;;;;;;4994194;28;20383;-74
2022/04/27 11:44:25;;;;;;;3.50;3.20;;;;;;;;;;5010280;28;20053;-74
2022/04/27 11:46:51;;;;;;;3.00;2.13;;;;;;;;;;5011600;28;20062;-74
2022/04/27 11:49:17;;;;;;;2.95;2.75;;;;;;;;;;5008277;28;20046;-74
2022/04/27 11:51:49;;;;;;;3.03;2.83;;;;;;;;;;5011614;28;20046;-73
2022/04/27 11:54:30;;;;;;;5.35;2.95;;;;;;;;;;5011633;28;20129;-73
2022/04/27 11:56:58;;;;;;;2.72;2.47;;;;;;;;;;5012013;28;20124;-72
2022/04/27 11:59:24;;;;;;;5.40;2.58;;;;;;;;;;5005480;28;20133;-72
2022/04/27 12:01:53;;;;;;;13.88;2.65;;;;;;;;;;5000704;28;20042;-73
2022/04/27 12:04:19;;;;;;;10.20;3.05;;;;;;;;;;4992146;28;20045;-74
2022/04/27 12:06:45;;;;;;;9.90;2.10;;;;;;;;;;5011641;28;20087;-72
2022/04/27 12:09:15;;;;;;;4.60;3.00;;;;;;;;;;4988010;28;20057;-73
2022/04/27 12:11:41;;;;;;;2.85;2.22;;;;;;;;;;5011764;28;20045;-73
2022/04/27 12:14:07;;;;;;;10.13;2.63;;;;;;;;;;5011432;28;20492;-74
2022/04/27 12:16:34;;;;;;;6.88;2.58;;;;;;;;;;5010047;28;20054;-74
2022/04/27 12:19:00;;;;;;;2.10;2.00;;;;;;;;;;4993665;28;20399;-74
2022/04/27 12:21:27;;;;;;;1.77;1.63;;;;;;;;;;5011377;28;20041;-72
2022/04/27 12:23:56;;;;;;;2.00;1.80;;;;;;;;;;4994241;28;20038;-75
2022/04/27 12:26:23;;;;;;;1.95;1.85;;;;;;;;;;5011349;28;20088;-73
2022/04/27 12:28:49;;;;;;;5.40;1.92;;;;;;;;;;5010082;28;20121;-74
2022/04/27 12:31:16;;;;;;;4.82;2.45;;;;;;;;;;5011258;28;20460;-73
2022/04/27 12:33:49;;;;;;;1.90;1.80;;;;;;;;;;5011084;28;20526;-73
2022/04/27 12:39:24;;;;;;;2.97;1.80;;;;;;;;;;5010752;28;20089;-74
2022/04/27 12:41:51;;;;;;;2.08;1.80;;;;;;;;;;5011866;28;20041;-74
2022/04/27 12:44:18;;;;;;;3.25;2.05;;;;;;;;;;4993342;28;20433;-74
2022/04/27 12:47:16;;;;;;;1.90;1.77;;;;;;;;;;5009353;28;20047;-73
2022/04/27 12:49:43;;;;;;;2.72;2.10;;;;;;;;;;4988114;28;20034;-74
2022/04/27 12:52:21;;;;;;;2.88;2.00;;;;;;;;;;4993859;28;20525;-74
2022/04/27 12:54:47;;;;;;;3.00;2.10;;;;;;;;;;5009914;28;20134;-74
2022/04/27 12:57:14;;;;;;;2.10;2.00;;;;;;;;;;5011312;28;20417;-74
2022/04/27 12:59:56;;;;;;;2.25;1.90;;;;;;;;;;5011529;28;20089;-74
2022/04/27 13:02:22;;;;;;;2.63;2.42;;;;;;;;;;5009130;28;20049;-74
2022/04/27 13:04:48;;;;;;;3.30;3.00;;;;;;;;;;5010928;28;20041;-75
2022/04/27 13:07:14;;;;;;;3.30;3.00;;;;;;;;;;5017946;28;20038;-75
2022/04/27 13:12:29;;;;;;;4.00;3.17;;;;;;;;;;5011149;28;20037;-75
2022/04/27 13:14:55;;;;;;;3.97;3.67;;;;;;;;;;5006653;28;20108;-75
2022/04/27 13:17:20;;;;;;;3.30;2.13;;;;;;;;;;5010069;28;20042;-75
2022/04/27 13:19:46;;;;;;;4.65;3.20;;;;;;;;;;5010140;28;20041;-75
2022/04/27 13:22:13;;;;;;;4.25;3.85;;;;;;;;;;4992741;28;20103;-75
2022/04/27 13:24:39;;;;;;;6.40;4.25;;;;;;;;;;4992548;28;20049;-75
2022/04/27 13:27:05;;;;;;;3.97;3.58;;;;;;;;;;5010368;28;20042;-75
2022/04/27 13:29:31;;;;;;;8.48;5.65;;;;;;;;;;5010238;28;20129;-74
2022/04/27 13:31:57;;;;;;;6.05;4.95;;;;;;;;;;5010297;28;20132;-75
2022/04/27 13:34:23;;;;;;;7.68;3.40;;;;;;;;;;5009820;28;20037;-75
2022/04/27 13:36:49;;;;;;;7.95;5.22;;;;;;;;;;4992989;28;20046;-74
2022/04/27 13:39:17;;;;;;;11.68;8.60;;;;;;;;;;5010187;28;20061;-74
2022/04/27 13:41:43;;;;;;;9.90;5.32;;;;;;;;;;5010086;28;20053;-74
2022/04/27 13:44:11;;;;;;;8.20;4.65;;;;;;;;;;5009857;28;20042;-75
2022/04/27 13:46:37;;;;;;;8.73;5.25;;;;;;;;;;4992094;28;20547;-75
2022/04/27 13:49:03;;;;;;;7.50;3.83;;;;;;;;;;5009727;28;20038;-74
2022/04/27 13:51:30;;;;;;;7.68;4.40;;;;;;;;;;4992035;28;20136;-78
2022/04/27 13:53:58;;;;;;;6.10;3.08;;;;;;;;;;5009410;28;20045;-77
2022/04/27 13:56:25;;;;;;;6.53;2.50;;;;;;;;;;5009461;28;20052;-78
2022/04/27 13:58:51;;;;;;;10.13;2.22;;;;;;;;;;5009772;28;20076;-79
2022/04/27 14:01:17;;;;;;;2.10;2.00;;;;;;;;;;4991977;28;20153;-78
2022/04/27 14:03:44;;;;;;;7.70;3.03;;;;;;;;;;4975783;28;20795;-78
2022/04/27 14:06:10;;;;;;;3.10;2.85;;;;;;;;;;4972690;28;20522;-78
2022/04/27 14:08:36;;;;;;;3.65;2.13;;;;;;;;;;4989910;28;20042;-77
2022/04/27 14:11:02;;;;;;;5.28;2.50;;;;;;;;;;4973345;28;20088;-79
2022/04/27 14:13:28;;;;;;;2.13;2.03;;;;;;;;;;4972816;28;20427;-79
2022/04/27 14:18:38;;;;;;;3.58;2.13;;;;;;;;;;4985250;28;20090;-77
2022/04/27 14:21:06;;;;;;;4.72;2.50;;;;;;;;;;4997667;28;20130;-77
2022/04/27 14:23:32;;;;;;;1.88;1.77;;;;;;;;;;5009830;28;20141;-77
2022/04/27 14:25:57;;;;;;;2.03;1.83;;;;;;;;;;5009160;28;20561;-77
2022/04/27 14:28:24;;;;;;;5.20;2.10;;;;;;;;;;5013533;28;20050;-77
2022/04/27 14:30:50;;;;;;;3.50;1.88;;;;;;;;;;4996268;28;20042;-78
2022/04/27 14:33:16;;;;;;;1.90;1.80;;;;;;;;;;5013971;28;20045;-77
2022/04/27 14:35:44;;;;;;;5.28;2.40;;;;;;;;;;5013450;28;20046;-78
2022/04/27 14:38:10;;;;;;;4.10;1.88;;;;;;;;;;5013666;28;20525;-78
2022/04/27 14:40:36;;;;;;;1.70;1.50;;;;;;;;;;5013264;28;20133;-76
2022/04/27 14:43:03;;;;;;;2.97;2.10;;;;;;;;;;5013385;28;20132;-77
2022/04/27 14:45:31;;;;;;;4.72;2.10;;;;;;;;;;5009170;28;20062;-77
2022/04/27 14:47:58;;;;;;;2.28;1.90;;;;;;;;;;5006844;28;20052;-74
2022/04/27 14:50:24;;;;;;;4.50;2.20;;;;;;;;;;5009399;28;20042;-79
2022/04/27 14:52:50;;;;;;;4.50;2.80;;;;;;;;;;4994724;28;20053;-79
2022/04/27 14:55:17;;;;;;;4.18;2.80;;;;;;;;;;5013255;28;20507;-78
2022/04/27 14:57:43;;;;;;;8.23;3.15;;;;;;;;;;4994299;28;20050;-80
2022/04/27 15:00:09;;;;;;;2.95;2.38;;;;;;;;;;4992925;28;20523;-79
2022/04/27 15:02:35;;;;;;;2.75;2.40;;;;;;;;;;4993524;28;20058;-74
2022/04/27 15:05:01;;;;;;;2.70;2.30;;;;;;;;;;4996662;28;20419;-74
2022/04/27 15:07:29;;;;;;;3.10;2.45;;;;;;;;;;4975774;28;20431;-75
2022/04/27 15:09:55;;;;;;;3.65;2.10;;;;;;;;;;4993073;28;20053;-74
2022/04/27 15:12:21;;;;;;;3.25;2.67;;;;;;;;;;4993320;28;20042;-74
2022/04/27 15:14:47;;;;;;;4.45;2.30;;;;;;;;;;4993114;28;20053;-74
2022/04/27 15:17:13;;;;;;;3.65;1.90;;;;;;;;;;4993128;28;20129;-74
2022/04/27 15:19:39;;;;;;;7.30;2.10;;;;;;;;;;4992756;28;20413;-74
2022/04/27 15:24:49;;;;;;;2.55;2.28;;;;;;;;;;5011087;28;20133;-74
2022/04/27 15:27:16;;;;;;;2.47;1.92;;;;;;;;;;4994668;28;20428;-75
2022/04/27 15:29:42;;;;;;;6.88;2.00;;;;;;;;;;5010736;28;20477;-75